createdAt,value
2018-03-06T00:02:09.307Z,15.25
2018-03-06T00:04:37.558Z,14.57
2018-03-06T00:07:05.737Z,15.30
2018-03-06T00:09:33.912Z,15.57
2018-03-06T00:12:02.094Z,16.27
2018-03-06T00:14:30.257Z,15.27
2018-03-06T00:16:59.120Z,15.77
2018-03-06T00:19:28.070Z,14.65
2018-03-06T00:21:56.262Z,14.32
2018-03-06T00:24:25.510Z,14.45
2018-03-06T00:26:53.676Z,17.00
2018-03-06T00:29:21.883Z,15.75
2018-03-06T00:31:50.059Z,18.17
2018-03-06T00:34:24.532Z,15.65
2018-03-06T00:39:50.708Z,18.30
2018-03-06T00:42:32.668Z,19.80
2018-03-06T00:45:01.785Z,22.40
2018-03-06T00:47:29.958Z,21.00
2018-03-06T00:49:58.148Z,20.48
2018-03-06T00:52:26.323Z,20.80
2018-03-06T00:54:54.512Z,20.73
2018-03-06T00:57:23.405Z,21.40
2018-03-06T00:59:51.610Z,19.37
2018-03-06T01:02:19.787Z,18.65
2018-03-06T01:04:48.002Z,17.12
2018-03-06T01:07:16.193Z,19.37
2018-03-06T01:09:44.373Z,18.52
2018-03-06T01:12:12.538Z,18.75
2018-03-06T01:14:40.725Z,20.23
2018-03-06T01:17:09.339Z,22.80
2018-03-06T01:19:37.518Z,21.45
2018-03-06T01:22:05.717Z,22.37
2018-03-06T01:24:34.041Z,21.73
2018-03-06T01:27:02.210Z,22.25
2018-03-06T01:29:30.393Z,22.48
2018-03-06T01:31:58.552Z,19.45
2018-03-06T01:34:26.729Z,18.70
2018-03-06T01:36:54.913Z,20.05
2018-03-06T01:39:23.806Z,18.67
2018-03-06T01:41:52.022Z,19.25
2018-03-06T01:44:21.067Z,21.42
2018-03-06T01:46:49.247Z,23.87
2018-03-06T01:49:17.411Z,23.85
2018-03-06T01:51:57.262Z,23.55
2018-03-06T01:54:26.460Z,22.83
2018-03-06T01:56:54.638Z,25.33
2018-03-06T01:59:23.047Z,26.60
2018-03-06T02:01:51.226Z,24.83
2018-03-06T02:04:20.373Z,24.30
2018-03-06T02:06:48.570Z,24.25
2018-03-06T02:09:16.754Z,26.45
2018-03-06T02:11:44.939Z,25.15
2018-03-06T02:14:13.135Z,27.05
2018-03-06T02:16:42.069Z,27.60
2018-03-06T02:19:10.243Z,24.08
2018-03-06T02:21:38.423Z,25.58
2018-03-06T02:24:06.612Z,27.95
2018-03-06T02:26:34.811Z,24.08
2018-03-06T02:29:03.044Z,23.10
2018-03-06T02:31:31.239Z,22.35
2018-03-06T02:33:59.486Z,24.20
2018-03-06T02:36:27.673Z,28.33
2018-03-06T02:38:57.513Z,28.87
2018-03-06T02:41:25.721Z,26.23
2018-03-06T02:43:54.658Z,28.35
2018-03-06T02:46:22.856Z,27.50
2018-03-06T02:48:51.028Z,30.77
2018-03-06T02:51:19.226Z,28.52
2018-03-06T02:53:49.196Z,28.62
2018-03-06T02:56:17.406Z,29.40
2018-03-06T02:58:46.366Z,28.62
2018-03-06T03:01:14.557Z,28.08
2018-03-06T03:03:42.744Z,29.10
2018-03-06T03:06:10.916Z,30.00
2018-03-06T03:08:39.117Z,28.40
2018-03-06T03:11:07.309Z,28.38
2018-03-06T03:13:36.396Z,29.83
2018-03-06T03:16:04.604Z,31.80
2018-03-06T03:18:32.791Z,33.47
2018-03-06T03:21:00.969Z,29.55
2018-03-06T03:23:29.163Z,35.05
2018-03-06T03:25:57.346Z,33.35
2018-03-06T03:28:26.293Z,32.22
2018-03-06T03:30:54.493Z,31.85
2018-03-06T03:33:22.732Z,30.50
2018-03-06T03:35:50.920Z,30.12
2018-03-06T03:38:19.110Z,31.92
2018-03-06T03:40:47.489Z,34.35
2018-03-06T03:43:15.733Z,38.72
2018-03-06T03:45:43.920Z,34.47
2018-03-06T03:48:12.096Z,32.63
2018-03-06T03:50:40.263Z,35.15
2018-03-06T03:53:08.454Z,34.00
2018-03-06T03:55:36.632Z,32.28
2018-03-06T03:58:04.839Z,34.15
2018-03-06T04:00:33.783Z,35.38
2018-03-06T04:03:01.954Z,33.97
2018-03-06T04:05:30.152Z,39.15
2018-03-06T04:07:58.318Z,37.47
2018-03-06T04:10:26.516Z,36.67
2018-03-06T04:12:54.690Z,39.72
2018-03-06T04:15:22.952Z,32.65
2018-03-06T04:17:51.139Z,30.12
2018-03-06T04:20:19.338Z,32.95
2018-03-06T04:22:48.279Z,32.53
2018-03-06T04:25:16.456Z,35.58
2018-03-06T04:27:44.629Z,36.90
2018-03-06T04:30:12.819Z,35.47
2018-03-06T04:32:41.023Z,37.72
2018-03-06T04:35:15.489Z,41.20
2018-03-06T04:37:43.854Z,39.15
2018-03-06T04:40:12.127Z,40.08
2018-03-06T04:42:40.373Z,41.53
2018-03-06T04:45:09.765Z,33.85
2018-03-06T04:47:37.954Z,36.10
2018-03-06T04:50:07.886Z,36.03
2018-03-06T04:52:36.103Z,34.50
2018-03-06T04:55:07.011Z,32.20
2018-03-06T04:57:35.204Z,34.92
2018-03-06T05:00:04.127Z,32.63
2018-03-06T05:02:32.384Z,37.85
2018-03-06T05:05:00.571Z,38.30
2018-03-06T05:07:28.762Z,38.30
2018-03-06T05:09:57.599Z,40.90
2018-03-06T05:12:25.806Z,38.75
2018-03-06T05:15:05.742Z,42.65
2018-03-06T05:17:36.075Z,41.95
2018-03-06T05:20:04.980Z,41.92
2018-03-06T05:22:33.185Z,47.15
2018-03-06T05:25:06.245Z,44.40
2018-03-06T05:27:34.758Z,44.30
2018-03-06T05:30:05.024Z,44.72
2018-03-06T05:32:34.080Z,44.42
2018-03-06T05:35:04.359Z,49.70
2018-03-06T05:37:32.878Z,44.42
2018-03-06T05:40:01.090Z,43.53
2018-03-06T05:42:29.543Z,46.80
2018-03-06T05:44:59.855Z,48.30
2018-03-06T05:47:28.777Z,46.50
2018-03-06T05:49:57.215Z,44.88
2018-03-06T05:52:25.412Z,45.58
2018-03-06T05:54:54.754Z,45.63
2018-03-06T05:57:22.956Z,44.22
2018-03-06T05:59:51.156Z,41.78
2018-03-06T06:02:19.610Z,43.53
2018-03-06T06:04:50.922Z,45.63
2018-03-06T06:07:20.065Z,43.28
2018-03-06T06:09:48.982Z,45.17
2018-03-06T06:12:17.181Z,45.65
2018-03-06T06:14:48.918Z,43.80
2018-03-06T06:17:17.836Z,43.53
2018-03-06T06:19:46.241Z,43.38
2018-03-06T06:22:14.420Z,42.10
2018-03-06T06:24:42.674Z,41.92
2018-03-06T06:27:10.860Z,45.22
2018-03-06T06:29:39.025Z,46.90
2018-03-06T06:32:09.251Z,44.13
2018-03-06T06:34:43.690Z,47.78
2018-03-06T06:37:12.613Z,41.55
2018-03-06T06:39:42.898Z,42.67
2018-03-06T06:42:11.131Z,40.65
2018-03-06T06:44:42.484Z,38.05
2018-03-06T06:47:12.486Z,44.00
2018-03-06T06:49:41.333Z,42.15
2018-03-06T06:52:10.343Z,41.30
2018-03-06T06:54:40.448Z,41.58
2018-03-06T06:57:08.688Z,42.62
2018-03-06T06:59:36.868Z,44.28
2018-03-06T07:02:05.244Z,41.40
2018-03-06T07:04:33.491Z,40.05
2018-03-06T07:07:01.694Z,43.22
2018-03-06T07:09:30.863Z,41.30
2018-03-06T07:12:02.114Z,39.83
2018-03-06T07:14:32.415Z,43.10
2018-03-06T07:17:06.876Z,44.05
2018-03-06T07:19:35.052Z,41.30
2018-03-06T07:22:04.205Z,39.58
2018-03-06T07:24:42.635Z,43.15
2018-03-06T07:30:20.467Z,42.55
2018-03-06T07:32:50.423Z,44.70
2018-03-06T07:35:21.308Z,44.83
2018-03-06T07:37:50.391Z,41.22
2018-03-06T07:40:20.336Z,50.47
2018-03-06T07:42:49.212Z,43.97
2018-03-06T07:48:13.136Z,44.67
2018-03-06T07:50:47.608Z,46.63
2018-03-06T07:53:17.604Z,47.90
2018-03-06T07:55:47.128Z,45.15
2018-03-06T07:58:15.536Z,48.17
2018-03-06T08:00:44.179Z,46.75
2018-03-06T08:03:16.652Z,45.58
2018-03-06T08:05:47.041Z,41.17
2018-03-06T08:08:15.211Z,41.53
2018-03-06T08:10:44.744Z,42.80
2018-03-06T08:13:16.143Z,42.22
2018-03-06T08:15:44.907Z,41.10
2018-03-06T08:18:13.931Z,38.35
2018-03-06T08:20:42.937Z,46.78
2018-03-06T08:23:11.113Z,42.95
2018-03-06T08:25:40.907Z,43.22
2018-03-06T08:28:09.710Z,35.55
2018-03-06T08:30:39.935Z,32.47
2018-03-06T08:33:08.659Z,34.10
2018-03-06T08:35:36.865Z,36.38
2018-03-06T08:38:05.894Z,37.53
2018-03-06T08:40:34.065Z,36.55
2018-03-06T08:43:02.239Z,38.50
2018-03-06T08:45:30.389Z,34.13
2018-03-06T08:47:59.414Z,33.60
2018-03-06T08:50:28.117Z,35.05
2018-03-06T08:52:56.367Z,33.63
2018-03-06T08:55:26.349Z,32.72
2018-03-06T08:57:54.517Z,36.03
2018-03-06T09:00:22.692Z,31.15
2018-03-06T09:02:50.887Z,30.25
2018-03-06T09:05:21.797Z,25.85
2018-03-06T09:07:50.832Z,29.12
2018-03-06T09:10:19.422Z,25.75
2018-03-06T09:12:47.602Z,28.67
2018-03-06T09:15:19.214Z,24.63
2018-03-06T09:17:51.060Z,28.30
2018-03-06T09:20:21.055Z,27.37
2018-03-06T09:22:52.932Z,26.33
2018-03-06T09:25:23.455Z,28.02
2018-03-06T09:27:51.648Z,25.77
2018-03-06T09:30:19.820Z,25.62
2018-03-06T09:32:49.665Z,27.75
2018-03-06T09:35:18.613Z,26.48
2018-03-06T09:37:46.813Z,24.15
2018-03-06T09:40:18.758Z,26.25
2018-03-06T09:42:47.721Z,23.85
2018-03-06T09:45:16.056Z,24.85
2018-03-06T09:47:45.059Z,25.45
2018-03-06T09:50:13.376Z,22.77
2018-03-06T09:52:41.586Z,23.75
2018-03-06T09:55:10.318Z,27.67
2018-03-06T09:57:38.795Z,25.15
2018-03-06T10:00:07.262Z,24.70
2018-03-06T10:02:35.966Z,26.95
2018-03-06T10:05:05.393Z,27.13
2018-03-06T10:07:33.563Z,25.70
2018-03-06T10:10:01.798Z,30.23
2018-03-06T10:12:30.739Z,31.33
2018-03-06T10:14:59.011Z,28.38
2018-03-06T10:17:27.156Z,33.22
2018-03-06T10:19:56.059Z,33.70
2018-03-06T10:22:24.251Z,33.45
2018-03-06T10:24:53.537Z,33.40
2018-03-06T10:27:22.155Z,36.78
2018-03-06T10:29:51.361Z,36.40
2018-03-06T10:32:22.114Z,38.75
2018-03-06T10:34:51.434Z,33.45
2018-03-06T10:37:19.616Z,38.22
2018-03-06T10:39:47.837Z,38.50
2018-03-06T10:42:16.390Z,36.92
2018-03-06T10:44:45.061Z,37.90
2018-03-06T10:47:15.059Z,40.22
2018-03-06T10:49:44.789Z,36.30
2018-03-06T10:52:12.967Z,36.47
2018-03-06T10:54:42.054Z,38.75
2018-03-06T10:57:10.262Z,37.83
2018-03-06T10:59:38.471Z,36.95
2018-03-06T11:02:06.651Z,34.85
2018-03-06T11:04:35.805Z,36.25
2018-03-06T11:07:04.047Z,39.28
2018-03-06T11:09:33.126Z,39.38
2018-03-06T11:12:03.687Z,38.60
2018-03-06T11:14:31.985Z,41.05
2018-03-06T11:17:01.089Z,41.83
2018-03-06T11:19:30.335Z,42.70
2018-03-06T11:21:58.544Z,41.42
2018-03-06T11:24:26.736Z,40.17
2018-03-06T11:26:54.909Z,39.50
2018-03-06T11:29:23.365Z,38.65
2018-03-06T11:31:51.527Z,39.42
2018-03-06T11:34:19.839Z,38.75
2018-03-06T11:36:48.674Z,38.65
2018-03-06T11:39:17.636Z,40.20
2018-03-06T11:41:45.822Z,36.50
2018-03-06T11:44:14.978Z,35.65
2018-03-06T11:46:43.156Z,38.63
2018-03-06T11:49:11.452Z,38.25
2018-03-06T11:51:39.925Z,39.65
2018-03-06T11:54:08.183Z,39.72
2018-03-06T11:56:37.193Z,37.25
2018-03-06T11:59:05.384Z,38.65
2018-03-06T12:01:35.366Z,37.92
2018-03-06T12:04:04.697Z,37.00
2018-03-06T12:06:33.752Z,40.22
2018-03-06T12:09:02.721Z,35.58
2018-03-06T12:11:32.972Z,36.42
2018-03-06T12:14:01.497Z,35.75
2018-03-06T12:16:29.827Z,37.22
2018-03-06T12:19:02.606Z,36.92
2018-03-06T12:21:30.833Z,37.67
2018-03-06T12:23:59.523Z,36.55
2018-03-06T12:26:28.878Z,38.78
2018-03-06T12:28:57.636Z,37.38
2018-03-06T12:31:26.571Z,36.47
2018-03-06T12:33:54.840Z,37.90
2018-03-06T12:36:24.233Z,35.80
2018-03-06T12:38:52.682Z,31.70
2018-03-06T12:41:22.451Z,33.97
2018-03-06T12:43:50.616Z,33.90
2018-03-06T12:46:19.635Z,32.50
2018-03-06T12:48:48.736Z,32.30
2018-03-06T12:51:16.904Z,36.22
2018-03-06T12:53:45.212Z,34.13
2018-03-06T12:56:14.157Z,34.55
2018-03-06T12:58:42.349Z,34.58
2018-03-06T13:01:14.775Z,33.33
2018-03-06T13:03:49.195Z,33.75
2018-03-06T13:06:18.278Z,34.80
2018-03-06T13:08:47.321Z,36.25
2018-03-06T13:11:15.982Z,33.28
2018-03-06T13:13:44.467Z,34.03
2018-03-06T13:16:13.583Z,32.28
2018-03-06T13:18:42.613Z,34.40
2018-03-06T13:21:11.558Z,34.53
2018-03-06T13:23:44.023Z,34.30
2018-03-06T13:26:15.141Z,31.95
2018-03-06T13:28:44.432Z,32.10
2018-03-06T13:31:12.928Z,33.58
2018-03-06T13:33:42.254Z,33.80
2018-03-06T13:36:12.325Z,33.13
2018-03-06T13:38:43.095Z,34.55
2018-03-06T13:41:11.523Z,32.75
2018-03-06T13:43:41.718Z,33.28
2018-03-06T13:46:10.386Z,32.38
2018-03-06T13:48:38.600Z,33.85
2018-03-06T13:51:07.165Z,31.17
2018-03-06T13:53:39.741Z,32.20
2018-03-06T13:56:07.904Z,32.67
2018-03-06T13:58:46.277Z,33.70
2018-03-06T14:01:15.978Z,30.67
2018-03-06T14:03:45.030Z,32.70
2018-03-06T14:06:14.430Z,33.95
2018-03-06T14:08:42.595Z,29.90
2018-03-06T14:11:11.035Z,30.55
2018-03-06T14:13:45.996Z,29.25
2018-03-06T14:16:14.231Z,29.23
2018-03-06T14:18:42.421Z,31.65
2018-03-06T14:21:10.609Z,30.15
2018-03-06T14:23:38.869Z,31.12
2018-03-06T14:26:08.161Z,31.30
2018-03-06T14:28:36.338Z,31.77
2018-03-06T14:31:04.496Z,32.33
2018-03-06T14:33:32.767Z,30.58
2018-03-06T14:36:00.949Z,33.10
2018-03-06T14:38:29.122Z,31.15
2018-03-06T14:40:57.347Z,31.50
2018-03-06T14:43:25.634Z,29.25
2018-03-06T14:45:53.838Z,29.77
2018-03-06T14:48:22.008Z,31.33
2018-03-06T14:50:50.170Z,28.62
2018-03-06T14:53:19.363Z,29.60
2018-03-06T14:55:47.543Z,30.15
2018-03-06T14:58:15.732Z,31.80
2018-03-06T15:00:44.164Z,31.45
2018-03-06T15:03:13.085Z,33.00
2018-03-06T15:05:42.043Z,32.70
2018-03-06T15:08:10.973Z,30.30
2018-03-06T15:10:39.135Z,31.70
2018-03-06T15:13:07.298Z,31.40
2018-03-06T15:15:35.484Z,33.17
2018-03-06T15:18:03.686Z,30.15
2018-03-06T15:20:32.069Z,32.10
2018-03-06T15:23:01.843Z,30.58
2018-03-06T15:25:30.727Z,29.70
2018-03-06T15:27:59.872Z,30.92
2018-03-06T15:30:28.098Z,32.28
2018-03-06T15:32:56.333Z,30.95
2018-03-06T15:35:25.869Z,32.10
2018-03-06T15:37:54.109Z,29.30
2018-03-06T15:40:23.671Z,31.02
2018-03-06T15:42:52.888Z,30.20
2018-03-06T15:45:21.255Z,31.70
2018-03-06T15:47:49.644Z,31.40
2018-03-06T15:50:17.905Z,31.12
2018-03-06T15:52:47.367Z,31.00
2018-03-06T15:55:17.583Z,33.72
2018-03-06T15:57:46.082Z,30.42
2018-03-06T16:00:15.941Z,29.90
2018-03-06T16:02:44.481Z,29.30
2018-03-06T16:05:12.895Z,29.15
2018-03-06T16:07:42.677Z,29.67
2018-03-06T16:10:10.925Z,29.73
2018-03-06T16:12:39.118Z,29.65
2018-03-06T16:15:08.110Z,29.25
2018-03-06T16:17:38.090Z,31.55
2018-03-06T16:20:06.316Z,32.50
2018-03-06T16:22:39.496Z,31.40
2018-03-06T16:25:09.341Z,32.03
2018-03-06T16:27:38.472Z,31.73
2018-03-06T16:30:06.964Z,37.20
2018-03-06T16:32:35.983Z,33.17
2018-03-06T16:35:04.696Z,35.20
2018-03-06T16:37:32.947Z,35.17
2018-03-06T16:40:01.134Z,34.45
2018-03-06T16:42:29.373Z,36.58
2018-03-06T16:44:59.696Z,37.28
2018-03-06T16:47:28.531Z,37.10
2018-03-06T16:49:56.746Z,36.80
2018-03-06T16:52:26.849Z,37.17
2018-03-06T16:54:55.092Z,36.97
2018-03-06T16:57:23.289Z,37.90
2018-03-06T16:59:51.473Z,31.23
2018-03-06T17:02:20.331Z,27.55
2018-03-06T17:04:48.813Z,24.05
2018-03-06T17:07:17.040Z,27.40
2018-03-06T17:09:46.093Z,26.17
2018-03-06T17:12:14.380Z,27.40
2018-03-06T17:14:42.724Z,27.15
2018-03-06T17:17:11.713Z,25.75
2018-03-06T17:19:40.728Z,27.77
2018-03-06T17:22:09.522Z,27.95
2018-03-06T17:24:38.688Z,22.60
2018-03-06T17:27:09.076Z,22.52
2018-03-06T17:29:37.504Z,21.30
2018-03-06T17:32:06.047Z,19.55
2018-03-06T17:34:35.679Z,17.90
2018-03-06T17:37:03.903Z,20.58
2018-03-06T17:39:32.836Z,19.58
2018-03-06T17:42:01.147Z,22.15
2018-03-06T17:44:29.926Z,19.75
2018-03-06T17:46:58.913Z,18.70
2018-03-06T17:49:28.754Z,20.92
2018-03-06T17:51:57.663Z,21.87
2018-03-06T17:54:25.964Z,20.95
2018-03-06T17:56:54.172Z,18.35
2018-03-06T17:59:23.556Z,21.35
2018-03-06T18:01:51.748Z,18.08
2018-03-06T18:04:23.421Z,17.67
2018-03-06T18:06:52.446Z,20.33
2018-03-06T18:09:21.495Z,22.80
2018-03-06T18:11:50.566Z,22.70
2018-03-06T18:14:19.811Z,21.55
2018-03-06T18:16:48.089Z,20.80
2018-03-06T18:19:16.315Z,17.67
2018-03-06T18:21:44.574Z,19.55
2018-03-06T18:24:14.064Z,20.70
2018-03-06T18:26:46.331Z,21.10
2018-03-06T18:29:14.786Z,21.35
2018-03-06T18:31:43.970Z,18.95
2018-03-06T18:34:16.580Z,19.87
2018-03-06T18:36:44.863Z,24.17
2018-03-06T18:39:13.765Z,21.17
2018-03-06T18:41:41.966Z,17.48
2018-03-06T18:44:11.488Z,19.60
2018-03-06T18:46:40.330Z,21.48
2018-03-06T18:49:09.399Z,19.50
2018-03-06T18:51:38.574Z,16.83
2018-03-06T18:54:07.402Z,16.50
2018-03-06T18:56:36.199Z,16.23
2018-03-06T18:59:04.507Z,19.02
2018-03-06T19:01:58.389Z,18.12
2018-03-06T19:04:39.264Z,18.17
2018-03-06T19:09:58.888Z,19.85
2018-03-06T19:12:28.337Z,20.15
2018-03-06T19:14:56.669Z,20.48
2018-03-06T19:17:26.822Z,20.05
2018-03-06T19:19:56.165Z,16.83
2018-03-06T19:22:26.370Z,18.90
2018-03-06T19:24:54.647Z,21.75
2018-03-06T19:27:23.031Z,19.73
2018-03-06T19:29:51.279Z,21.33
2018-03-06T19:32:21.488Z,21.50
2018-03-06T19:34:50.427Z,18.00
2018-03-06T19:37:18.596Z,19.15
2018-03-06T19:39:46.821Z,20.92
2018-03-06T19:42:15.049Z,19.77
2018-03-06T19:44:44.028Z,21.67
2018-03-06T19:47:13.106Z,23.60
2018-03-06T19:49:41.304Z,22.52
2018-03-06T19:52:09.502Z,21.60
2018-03-06T19:54:37.681Z,22.70
2018-03-06T19:57:05.839Z,21.67
2018-03-06T19:59:34.043Z,16.60
2018-03-06T20:02:03.271Z,19.25
2018-03-06T20:04:31.535Z,20.73
2018-03-06T20:06:59.995Z,21.30
2018-03-06T20:09:28.770Z,22.02
2018-03-06T20:11:58.645Z,20.25
2018-03-06T20:14:32.606Z,37.33
2018-03-06T20:17:02.359Z,25.52
2018-03-06T20:19:36.800Z,33.38
2018-03-06T20:22:05.776Z,32.30
2018-03-06T20:24:40.914Z,30.62
2018-03-06T20:27:09.650Z,23.00
2018-03-06T20:29:38.683Z,24.00
2018-03-06T20:32:12.554Z,25.10
2018-03-06T20:34:41.587Z,24.10
2018-03-06T20:37:09.822Z,25.77
2018-03-06T20:39:43.484Z,25.30
2018-03-06T20:42:12.220Z,27.35
2018-03-06T20:44:41.285Z,27.33
2018-03-06T20:47:15.050Z,25.88
2018-03-06T20:49:43.196Z,24.98
2018-03-06T20:52:12.351Z,20.52
2018-03-06T20:54:47.764Z,20.17
2018-03-06T20:57:15.953Z,21.60
2018-03-06T20:59:44.114Z,22.37
2018-03-06T21:02:12.355Z,20.62
2018-03-06T21:04:41.387Z,25.02
2018-03-06T21:07:09.570Z,23.48
2018-03-06T21:09:38.588Z,28.42
2018-03-06T21:12:06.990Z,25.00
2018-03-06T21:14:35.309Z,25.37
2018-03-06T21:17:03.464Z,27.02
2018-03-06T21:19:31.709Z,25.98
2018-03-06T21:21:59.935Z,29.15
2018-03-06T21:24:28.206Z,24.83
2018-03-06T21:26:56.376Z,22.77
2018-03-06T21:29:25.438Z,26.30
2018-03-06T21:31:54.379Z,30.37
2018-03-06T21:34:24.573Z,32.95
2018-03-06T21:36:52.729Z,27.75
2018-03-06T21:39:21.669Z,26.92
2018-03-06T21:41:50.453Z,30.98
2018-03-06T21:44:18.698Z,35.15
2018-03-06T21:46:46.863Z,36.50
2018-03-06T21:49:15.797Z,39.40
2018-03-06T21:51:43.951Z,42.33
2018-03-06T21:54:12.234Z,39.30
2018-03-06T21:56:40.388Z,36.58
2018-03-06T21:59:08.550Z,33.30
2018-03-06T22:01:36.714Z,26.60
2018-03-06T22:04:05.734Z,20.60
2018-03-06T22:06:33.884Z,19.98
2018-03-06T22:09:02.797Z,21.70
2018-03-06T22:11:30.952Z,23.83
2018-03-06T22:13:59.889Z,23.85
2018-03-06T22:16:28.058Z,23.80
2018-03-06T22:18:57.523Z,23.23
2018-03-06T22:21:29.177Z,16.90
2018-03-06T22:23:59.123Z,15.68
2018-03-06T22:26:27.274Z,10.77
2018-03-06T22:28:56.211Z,7.75
2018-03-06T22:31:24.382Z,8.18
2018-03-06T22:33:52.643Z,9.30
2018-03-06T22:36:20.872Z,21.75
2018-03-06T22:38:49.029Z,31.75
2018-03-06T22:41:17.212Z,28.80
2018-03-06T22:43:45.397Z,25.33
2018-03-06T22:46:14.345Z,22.20
2018-03-06T22:48:42.494Z,21.92
2018-03-06T22:51:10.661Z,19.87
2018-03-06T22:53:39.676Z,17.25
2018-03-06T22:56:07.834Z,15.88
2018-03-06T22:58:36.729Z,15.18
2018-03-06T23:01:06.946Z,16.20
2018-03-06T23:03:35.227Z,15.93
2018-03-06T23:06:03.395Z,16.73
2018-03-06T23:08:31.618Z,19.00
2018-03-06T23:10:59.813Z,15.77
2018-03-06T23:13:28.935Z,13.70
2018-03-06T23:15:57.115Z,16.65
2018-03-06T23:18:27.120Z,16.85
2018-03-06T23:20:56.077Z,17.92
2018-03-06T23:23:36.473Z,15.75
2018-03-06T23:26:05.423Z,14.15
2018-03-06T23:28:39.273Z,16.05
2018-03-06T23:31:08.204Z,16.48
2018-03-06T23:33:48.327Z,14.00
2018-03-06T23:36:16.478Z,13.00
2018-03-06T23:38:48.492Z,13.93
2018-03-06T23:41:16.644Z,14.25
2018-03-06T23:43:44.926Z,12.63
2018-03-06T23:46:13.077Z,13.02
2018-03-06T23:48:42.002Z,14.63
2018-03-06T23:51:10.163Z,11.80
2018-03-06T23:53:39.478Z,12.85
2018-03-06T23:56:07.654Z,11.75
2018-03-06T23:58:35.822Z,12.63
